sensor_id;sensor_type;location;lat;lon;timestamp;pressure;altitude;pressure_sealevel;temperature;humidity
39739;BME280;25422;48.286;8.484;2024-01-10T00:00:11;94564.66;;;-7.56;100.00
39739;BME280;25422;48.286;8.484;2024-01-10T00:02:37;94570.63;;;-7.57;100.00
39739;BME280;25422;48.286;8.484;2024-01-10T00:05:02;94567.09;;;-7.53;100.00
39739;BME280;25422;48.286;8.484;2024-01-10T00:07:29;94571.31;;;-7.52;100.00
39739;BME280;25422;48.286;8.484;2024-01-10T00:09:54;94569.50;;;-7.48;100.00
39739;BME280;25422;48.286;8.484;2024-01-10T00:12:19;94563.31;;;-7.41;100.00
39739;BME280;25422;48.286;8.484;2024-01-10T00:14:45;94563.06;;;-7.33;100.00
39739;BME280;25422;48.286;8.484;2024-01-10T00:17:10;94573.19;;;-7.32;100.00
39739;BME280;25422;48.286;8.484;2024-01-10T00:19:36;94569.53;;;-7.24;100.00
39739;BME280;25422;48.286;8.484;2024-01-10T00:22:01;94566.38;;;-7.31;100.00
39739;BME280;25422;48.286;8.484;2024-01-10T00:24:26;94556.19;;;-7.31;100.00
39739;BME280;25422;48.286;8.484;2024-01-10T00:26:52;94556.19;;;-7.31;100.00
39739;BME280;25422;48.286;8.484;2024-01-10T00:29:17;94561.19;;;-7.28;100.00
39739;BME280;25422;48.286;8.484;2024-01-10T00:31:43;94552.06;;;-7.34;100.00
39739;BME280;25422;48.286;8.484;2024-01-10T00:34:08;94554.94;;;-7.43;100.00
39739;BME280;25422;48.286;8.484;2024-01-10T00:36:33;94556.44;;;-7.37;100.00
39739;BME280;25422;48.286;8.484;2024-01-10T00:38:59;94549.66;;;-7.38;100.00
39739;BME280;25422;48.286;8.484;2024-01-10T00:41:24;94543.22;;;-7.47;100.00
39739;BME280;25422;48.286;8.484;2024-01-10T00:43:50;94551.47;;;-7.42;100.00
39739;BME280;25422;48.286;8.484;2024-01-10T00:46:15;94552.47;;;-7.46;100.00
39739;BME280;25422;48.286;8.484;2024-01-10T00:48:40;94553.44;;;-7.49;100.00
39739;BME280;25422;48.286;8.484;2024-01-10T00:51:06;94550.91;;;-7.50;100.00
39739;BME280;25422;48.286;8.484;2024-01-10T00:53:37;94557.41;;;-7.41;100.00
39739;BME280;25422;48.286;8.484;2024-01-10T00:56:04;94553.31;;;-7.46;100.00
39739;BME280;25422;48.286;8.484;2024-01-10T00:58:30;94548.53;;;-7.55;100.00
39739;BME280;25422;48.286;8.484;2024-01-10T01:00:55;94553.69;;;-7.56;100.00
39739;BME280;25422;48.286;8.484;2024-01-10T01:03:21;94556.06;;;-7.52;100.00
39739;BME280;25422;48.286;8.484;2024-01-10T01:05:46;94556.34;;;-7.59;100.00
39739;BME280;25422;48.286;8.484;2024-01-10T01:08:12;94546.88;;;-7.56;100.00
39739;BME280;25422;48.286;8.484;2024-01-10T01:10:37;94554.44;;;-7.54;100.00
39739;BME280;25422;48.286;8.484;2024-01-10T01:13:02;94555.28;;;-7.54;100.00
39739;BME280;25422;48.286;8.484;2024-01-10T01:15:28;94563.47;;;-7.46;100.00
39739;BME280;25422;48.286;8.484;2024-01-10T01:17:53;94553.63;;;-7.55;100.00
39739;BME280;25422;48.286;8.484;2024-01-10T01:20:19;94557.34;;;-7.40;100.00
39739;BME280;25422;48.286;8.484;2024-01-10T01:22:44;94555.63;;;-7.39;100.00
39739;BME280;25422;48.286;8.484;2024-01-10T01:25:09;94555.84;;;-7.46;100.00
39739;BME280;25422;48.286;8.484;2024-01-10T01:27:35;94553.09;;;-7.39;100.00
39739;BME280;25422;48.286;8.484;2024-01-10T01:30:00;94555.44;;;-7.33;100.00
39739;BME280;25422;48.286;8.484;2024-01-10T01:32:26;94551.47;;;-7.42;100.00
39739;BME280;25422;48.286;8.484;2024-01-10T01:34:51;94560.63;;;-7.36;100.00
39739;BME280;25422;48.286;8.484;2024-01-10T01:37:16;94566.13;;;-7.49;100.00
39739;BME280;25422;48.286;8.484;2024-01-10T01:39:42;94559.94;;;-7.41;100.00
39739;BME280;25422;48.286;8.484;2024-01-10T01:42:07;94560.63;;;-7.36;100.00
39739;BME280;25422;48.286;8.484;2024-01-10T01:44:32;94567.47;;;-7.38;100.00
39739;BME280;25422;48.286;8.484;2024-01-10T01:46:58;94560.25;;;-7.51;100.00
39739;BME280;25422;48.286;8.484;2024-01-10T01:49:24;94564.72;;;-7.57;100.00
39739;BME280;25422;48.286;8.484;2024-01-10T01:51:51;94568.47;;;-7.42;100.00
39739;BME280;25422;48.286;8.484;2024-01-10T01:54:17;94563.47;;;-7.46;100.00
39739;BME280;25422;48.286;8.484;2024-01-10T01:56:44;94568.00;;;-7.54;100.00
39739;BME280;25422;48.286;8.484;2024-01-10T01:59:11;94563.69;;;-7.52;100.00
39739;BME280;25422;48.286;8.484;2024-01-10T02:01:36;94567.00;;;-7.50;100.00
39739;BME280;25422;48.286;8.484;2024-01-10T02:04:02;94568.25;;;-7.36;100.00
39739;BME280;25422;48.286;8.484;2024-01-10T02:06:29;94560.72;;;-7.39;100.00
39739;BME280;25422;48.286;8.484;2024-01-10T02:08:55;94560.38;;;-7.54;100.00
39739;BME280;25422;48.286;8.484;2024-01-10T02:11:21;94561.13;;;-7.52;100.00
39739;BME280;25422;48.286;8.484;2024-01-10T02:13:48;94554.72;;;-7.62;100.00
39739;BME280;25422;48.286;8.484;2024-01-10T02:16:13;94555.28;;;-7.54;100.00
39739;BME280;25422;48.286;8.484;2024-01-10T02:18:39;94556.94;;;-7.53;100.00
39739;BME280;25422;48.286;8.484;2024-01-10T02:21:04;94551.25;;;-7.59;100.00
39739;BME280;25422;48.286;8.484;2024-01-10T02:23:30;94559.81;;;-7.62;100.00
39739;BME280;25422;48.286;8.484;2024-01-10T02:25:55;94559.59;;;-7.56;100.00
39739;BME280;25422;48.286;8.484;2024-01-10T02:28:20;94551.75;;;-7.50;100.00
39739;BME280;25422;48.286;8.484;2024-01-10T02:30:49;94551.25;;;-7.59;100.00
39739;BME280;25422;48.286;8.484;2024-01-10T02:33:15;94543.72;;;-7.63;100.00
39739;BME280;25422;48.286;8.484;2024-01-10T02:35:41;94539.72;;;-7.70;100.00
39739;BME280;25422;48.286;8.484;2024-01-10T02:38:06;94546.13;;;-7.58;100.00
39739;BME280;25422;48.286;8.484;2024-01-10T02:40:31;94550.47;;;-7.62;100.00
39739;BME280;25422;48.286;8.484;2024-01-10T02:42:57;94558.09;;;-7.62;100.00
39739;BME280;25422;48.286;8.484;2024-01-10T02:45:22;94556.22;;;-7.56;100.00
39739;BME280;25422;48.286;8.484;2024-01-10T02:47:48;94552.38;;;-7.68;100.00
39739;BME280;25422;48.286;8.484;2024-01-10T02:50:13;94550.28;;;-7.57;100.00
39739;BME280;25422;48.286;8.484;2024-01-10T02:52:38;94553.41;;;-7.74;100.00
39739;BME280;25422;48.286;8.484;2024-01-10T02:55:04;94551.50;;;-7.67;100.00
39739;BME280;25422;48.286;8.484;2024-01-10T02:57:30;94561.28;;;-7.82;100.00
39739;BME280;25422;48.286;8.484;2024-01-10T02:59:55;94562.84;;;-7.77;100.00
39739;BME280;25422;48.286;8.484;2024-01-10T03:02:20;94555.84;;;-7.71;100.00
39739;BME280;25422;48.286;8.484;2024-01-10T03:04:48;94556.59;;;-7.67;100.00
39739;BME280;25422;48.286;8.484;2024-01-10T03:07:13;94559.41;;;-7.76;100.00
39739;BME280;25422;48.286;8.484;2024-01-10T03:09:39;94548.97;;;-7.67;100.00
39739;BME280;25422;48.286;8.484;2024-01-10T03:12:04;94536.16;;;-7.64;100.00
39739;BME280;25422;48.286;8.484;2024-01-10T03:14:29;94544.00;;;-7.70;100.00
39739;BME280;25422;48.286;8.484;2024-01-10T03:16:55;94541.81;;;-7.81;100.00
39739;BME280;25422;48.286;8.484;2024-01-10T03:19:20;94536.56;;;-7.76;100.00
39739;BME280;25422;48.286;8.484;2024-01-10T03:21:45;94541.53;;;-7.73;100.00
39739;BME280;25422;48.286;8.484;2024-01-10T03:24:11;94535.75;;;-7.79;100.00
39739;BME280;25422;48.286;8.484;2024-01-10T03:26:37;94534.88;;;-7.77;100.00
39739;BME280;25422;48.286;8.484;2024-01-10T03:29:02;94541.63;;;-7.76;100.00
39739;BME280;25422;48.286;8.484;2024-01-10T03:31:30;94543.34;;;-7.77;100.00
39739;BME280;25422;48.286;8.484;2024-01-10T03:33:56;94539.41;;;-7.86;100.00
39739;BME280;25422;48.286;8.484;2024-01-10T03:36:21;94533.56;;;-7.88;100.00
39739;BME280;25422;48.286;8.484;2024-01-10T03:38:47;94538.63;;;-7.88;100.00
39739;BME280;25422;48.286;8.484;2024-01-10T03:41:14;94540.81;;;-7.77;100.00
39739;BME280;25422;48.286;8.484;2024-01-10T03:43:39;94536.66;;;-7.80;100.00
39739;BME280;25422;48.286;8.484;2024-01-10T03:46:05;94531.72;;;-7.84;100.00
39739;BME280;25422;48.286;8.484;2024-01-10T03:48:31;94541.63;;;-7.76;100.00
39739;BME280;25422;48.286;8.484;2024-01-10T03:50:56;94538.91;;;-7.70;100.00
39739;BME280;25422;48.286;8.484;2024-01-10T03:53:22;94537.34;;;-7.74;100.00
39739;BME280;25422;48.286;8.484;2024-01-10T03:55:47;94539.66;;;-7.68;100.00
39739;BME280;25422;48.286;8.484;2024-01-10T03:58:12;94546.41;;;-7.67;100.00
39739;BME280;25422;48.286;8.484;2024-01-10T04:00:38;94539.63;;;-7.67;100.00
39739;BME280;25422;48.286;8.484;2024-01-10T04:03:03;94540.34;;;-7.63;100.00
39739;BME280;25422;48.286;8.484;2024-01-10T04:05:29;94535.16;;;-7.60;100.00
39739;BME280;25422;48.286;8.484;2024-01-10T04:07:54;94535.03;;;-7.57;100.00
39739;BME280;25422;48.286;8.484;2024-01-10T04:10:22;94524.13;;;-7.59;100.00
39739;BME280;25422;48.286;8.484;2024-01-10T04:12:48;94534.41;;;-7.62;100.00
39739;BME280;25422;48.286;8.484;2024-01-10T04:15:14;94537.34;;;-7.74;100.00
39739;BME280;25422;48.286;8.484;2024-01-10T04:17:39;94529.91;;;-7.81;100.00
39739;BME280;25422;48.286;8.484;2024-01-10T04:20:05;94541.88;;;-7.84;100.00
39739;BME280;25422;48.286;8.484;2024-01-10T04:22:31;94534.44;;;-7.89;100.00
39739;BME280;25422;48.286;8.484;2024-01-10T04:24:58;94543.75;;;-7.89;100.00
39739;BME280;25422;48.286;8.484;2024-01-10T04:27:23;94533.69;;;-7.92;100.00
39739;BME280;25422;48.286;8.484;2024-01-10T04:29:49;94534.72;;;-7.98;100.00
39739;BME280;25422;48.286;8.484;2024-01-10T04:32:14;94538.25;;;-8.02;100.00
39739;BME280;25422;48.286;8.484;2024-01-10T04:34:40;94531.66;;;-8.08;100.00
39739;BME280;25422;48.286;8.484;2024-01-10T04:37:06;94529.06;;;-8.06;100.00
39739;BME280;25422;48.286;8.484;2024-01-10T04:39:34;94538.53;;;-8.11;100.00
39739;BME280;25422;48.286;8.484;2024-01-10T04:42:00;94541.28;;;-8.18;100.00
39739;BME280;25422;48.286;8.484;2024-01-10T04:44:26;94549.78;;;-8.19;100.00
39739;BME280;25422;48.286;8.484;2024-01-10T04:46:51;94549.03;;;-8.22;100.00
39739;BME280;25422;48.286;8.484;2024-01-10T04:49:17;94544.22;;;-8.32;100.00
39739;BME280;25422;48.286;8.484;2024-01-10T04:51:42;94544.97;;;-8.28;100.00
39739;BME280;25422;48.286;8.484;2024-01-10T04:54:08;94541.28;;;-8.18;100.00
39739;BME280;25422;48.286;8.484;2024-01-10T04:56:35;94549.19;;;-8.27;100.00
39739;BME280;25422;48.286;8.484;2024-01-10T04:59:03;94562.78;;;-8.30;100.00
39739;BME280;25422;48.286;8.484;2024-01-10T05:01:29;94562.91;;;-8.34;100.00
39739;BME280;25422;48.286;8.484;2024-01-10T05:03:55;94561.00;;;-8.26;100.00
39739;BME280;25422;48.286;8.484;2024-01-10T05:06:20;94555.06;;;-8.26;100.00
39739;BME280;25422;48.286;8.484;2024-01-10T05:08:46;94556.69;;;-8.24;100.00
39739;BME280;25422;48.286;8.484;2024-01-10T05:11:11;94562.56;;;-8.22;100.00
39739;BME280;25422;48.286;8.484;2024-01-10T05:13:38;94554.91;;;-8.20;100.00
39739;BME280;25422;48.286;8.484;2024-01-10T05:16:05;94556.53;;;-8.19;100.00
39739;BME280;25422;48.286;8.484;2024-01-10T05:18:30;94555.63;;;-8.17;100.00
39739;BME280;25422;48.286;8.484;2024-01-10T05:20:56;94547.91;;;-8.14;100.00
39739;BME280;25422;48.286;8.484;2024-01-10T05:23:23;94543.81;;;-8.18;100.00
39739;BME280;25422;48.286;8.484;2024-01-10T05:25:48;94550.47;;;-8.14;100.00
39739;BME280;25422;48.286;8.484;2024-01-10T05:28:15;94551.16;;;-8.10;100.00
39739;BME280;25422;48.286;8.484;2024-01-10T05:30:40;94554.63;;;-8.13;100.00
39739;BME280;25422;48.286;8.484;2024-01-10T05:33:08;94546.19;;;-8.13;100.00
39739;BME280;25422;48.286;8.484;2024-01-10T05:35:33;94551.47;;;-8.19;100.00
39739;BME280;25422;48.286;8.484;2024-01-10T05:38:01;94547.50;;;-8.28;100.00
39739;BME280;25422;48.286;8.484;2024-01-10T05:40:28;94537.75;;;-8.40;100.00
39739;BME280;25422;48.286;8.484;2024-01-10T05:42:55;94532.94;;;-8.48;100.00
39739;BME280;25422;48.286;8.484;2024-01-10T05:45:21;94538.06;;;-8.50;100.00
39739;BME280;25422;48.286;8.484;2024-01-10T05:47:46;94535.06;;;-8.62;100.00
39739;BME280;25422;48.286;8.484;2024-01-10T05:50:13;94533.56;;;-8.70;100.00
39739;BME280;25422;48.286;8.484;2024-01-10T05:52:39;94538.91;;;-8.77;100.00
39739;BME280;25422;48.286;8.484;2024-01-10T05:55:05;94538.16;;;-8.81;100.00
39739;BME280;25422;48.286;8.484;2024-01-10T05:57:31;94539.28;;;-8.91;100.00
39739;BME280;25422;48.286;8.484;2024-01-10T05:59:57;94544.50;;;-8.96;100.00
39739;BME280;25422;48.286;8.484;2024-01-10T06:02:23;94545.25;;;-8.94;100.00
39739;BME280;25422;48.286;8.484;2024-01-10T06:04:49;94539.47;;;-8.98;100.00
39739;BME280;25422;48.286;8.484;2024-01-10T06:07:15;94536.19;;;-9.01;100.00
39739;BME280;25422;48.286;8.484;2024-01-10T06:09:40;94543.06;;;-9.06;100.00
39739;BME280;25422;48.286;8.484;2024-01-10T06:12:06;94543.31;;;-9.16;100.00
39739;BME280;25422;48.286;8.484;2024-01-10T06:14:32;94546.91;;;-9.23;100.00
39739;BME280;25422;48.286;8.484;2024-01-10T06:16:57;94549.53;;;-9.26;100.00
39739;BME280;25422;48.286;8.484;2024-01-10T06:19:25;94555.47;;;-9.27;100.00
39739;BME280;25422;48.286;8.484;2024-01-10T06:21:50;94547.06;;;-9.27;100.00
39739;BME280;25422;48.286;8.484;2024-01-10T06:24:17;94549.59;;;-9.27;100.00
39739;BME280;25422;48.286;8.484;2024-01-10T06:26:43;94546.31;;;-9.31;100.00
39739;BME280;25422;48.286;8.484;2024-01-10T06:29:08;94553.09;;;-9.32;100.00
39739;BME280;25422;48.286;8.484;2024-01-10T06:31:34;94547.31;;;-9.37;100.00
39739;BME280;25422;48.286;8.484;2024-01-10T06:33:59;94540.59;;;-9.39;100.00
39739;BME280;25422;48.286;8.484;2024-01-10T06:36:24;94545.69;;;-9.39;100.00
39739;BME280;25422;48.286;8.484;2024-01-10T06:38:50;94551.69;;;-9.43;100.00
39739;BME280;25422;48.286;8.484;2024-01-10T06:41:15;94557.72;;;-9.47;100.00
39739;BME280;25422;48.286;8.484;2024-01-10T06:43:41;94559.13;;;-9.37;100.00
39739;BME280;25422;48.286;8.484;2024-01-10T06:46:07;94559.97;;;-9.37;100.00
39739;BME280;25422;48.286;8.484;2024-01-10T06:48:32;94559.34;;;-9.45;100.00
39739;BME280;25422;48.286;8.484;2024-01-10T06:50:59;94559.59;;;-9.54;100.00
39739;BME280;25422;48.286;8.484;2024-01-10T06:53:24;94558.03;;;-9.60;100.00
39739;BME280;25422;48.286;8.484;2024-01-10T06:55:50;94556.50;;;-9.66;100.00
39739;BME280;25422;48.286;8.484;2024-01-10T06:58:16;94565.78;;;-9.66;100.00
39739;BME280;25422;48.286;8.484;2024-01-10T07:00:41;94567.31;;;-9.60;100.00
39739;BME280;25422;48.286;8.484;2024-01-10T07:03:07;94575.13;;;-9.68;100.00
39739;BME280;25422;48.286;8.484;2024-01-10T07:05:33;94576.94;;;-9.73;100.00
39739;BME280;25422;48.286;8.484;2024-01-10T07:07:59;94583.81;;;-9.78;100.00
39739;BME280;25422;48.286;8.484;2024-01-10T07:10:30;94584.00;;;-9.85;100.00
39739;BME280;25422;48.286;8.484;2024-01-10T07:12:55;94590.56;;;-9.77;100.00
39739;BME280;25422;48.286;8.484;2024-01-10T07:15:21;94589.69;;;-9.76;100.00
39739;BME280;25422;48.286;8.484;2024-01-10T07:17:48;94593.09;;;-9.77;100.00
39739;BME280;25422;48.286;8.484;2024-01-10T07:20:13;94598.06;;;-9.74;100.00
39739;BME280;25422;48.286;8.484;2024-01-10T07:22:39;94595.19;;;-9.59;100.00
39739;BME280;25422;48.286;8.484;2024-01-10T07:25:12;94591.44;;;-9.45;100.00
39739;BME280;25422;48.286;8.484;2024-01-10T07:27:40;94593.91;;;-9.42;100.00
39739;BME280;25422;48.286;8.484;2024-01-10T07:30:09;94592.81;;;-9.34;100.00
39739;BME280;25422;48.286;8.484;2024-01-10T07:32:44;94594.28;;;-9.25;100.00
39739;BME280;25422;48.286;8.484;2024-01-10T07:35:11;94598.28;;;-9.16;100.00
39739;BME280;25422;48.286;8.484;2024-01-10T07:37:38;94597.84;;;-9.01;100.00
39739;BME280;25422;48.286;8.484;2024-01-10T07:40:04;94597.63;;;-8.93;100.00
39739;BME280;25422;48.286;8.484;2024-01-10T07:42:33;94605.00;;;-8.84;100.00
39739;BME280;25422;48.286;8.484;2024-01-10T07:44:59;94606.31;;;-8.70;100.00
39739;BME280;25422;48.286;8.484;2024-01-10T07:47:25;94603.31;;;-8.55;100.00
39739;BME280;25422;48.286;8.484;2024-01-10T07:49:50;94600.38;;;-8.42;100.00
39739;BME280;25422;48.286;8.484;2024-01-10T07:52:16;94606.69;;;-8.26;100.00
39739;BME280;25422;48.286;8.484;2024-01-10T07:54:42;94602.28;;;-8.21;100.00
39739;BME280;25422;48.286;8.484;2024-01-10T07:57:08;94603.81;;;-8.15;100.00
39739;BME280;25422;48.286;8.484;2024-01-10T07:59:33;94608.84;;;-8.14;100.00
39739;BME280;25422;48.286;8.484;2024-01-10T08:02:00;94617.97;;;-8.08;100.00
39739;BME280;25422;48.286;8.484;2024-01-10T08:04:29;94610.72;;;-7.92;100.00
39739;BME280;25422;48.286;8.484;2024-01-10T08:06:54;94615.50;;;-7.83;100.00
39739;BME280;25422;48.286;8.484;2024-01-10T08:09:21;94610.13;;;-7.73;100.00
39739;BME280;25422;48.286;8.484;2024-01-10T08:11:48;94610.28;;;-7.53;100.00
39739;BME280;25422;48.286;8.484;2024-01-10T08:14:14;94620.53;;;-7.29;100.00
39739;BME280;25422;48.286;8.484;2024-01-10T08:16:41;94611.00;;;-7.22;100.00
39739;BME280;25422;48.286;8.484;2024-01-10T08:19:07;94610.78;;;-7.16;100.00
39739;BME280;25422;48.286;8.484;2024-01-10T08:21:32;94617.47;;;-7.14;100.00
39739;BME280;25422;48.286;8.484;2024-01-10T08:23:58;94618.78;;;-7.02;100.00
39739;BME280;25422;48.286;8.484;2024-01-10T08:26:24;94617.72;;;-6.96;100.00
39739;BME280;25422;48.286;8.484;2024-01-10T08:28:49;94624.03;;;-6.83;100.00
39739;BME280;25422;48.286;8.484;2024-01-10T08:31:18;94627.47;;;-6.84;100.00
39739;BME280;25422;48.286;8.484;2024-01-10T08:33:43;94621.38;;;-7.03;100.00
39739;BME280;25422;48.286;8.484;2024-01-10T08:36:09;94624.22;;;-6.87;100.00
39739;BME280;25422;48.286;8.484;2024-01-10T08:38:38;94625.38;;;-6.72;100.00
39739;BME280;25422;48.286;8.484;2024-01-10T08:41:04;94618.78;;;-6.54;100.00
39739;BME280;25422;48.286;8.484;2024-01-10T08:43:29;94624.97;;;-6.14;100.00
39739;BME280;25422;48.286;8.484;2024-01-10T08:45:56;94625.03;;;-6.16;100.00
39739;BME280;25422;48.286;8.484;2024-01-10T08:48:23;94624.91;;;-6.13;100.00
39739;BME280;25422;48.286;8.484;2024-01-10T08:50:50;94632.94;;;-6.01;100.00
39739;BME280;25422;48.286;8.484;2024-01-10T08:53:15;94620.94;;;-6.20;100.00
39739;BME280;25422;48.286;8.484;2024-01-10T08:55:41;94625.66;;;-6.11;100.00
39739;BME280;25422;48.286;8.484;2024-01-10T08:58:07;94621.75;;;-5.54;100.00
39739;BME280;25422;48.286;8.484;2024-01-10T09:00:32;94624.94;;;-5.49;100.00
39739;BME280;25422;48.286;8.484;2024-01-10T09:02:59;94627.19;;;-5.21;100.00
39739;BME280;25422;48.286;8.484;2024-01-10T09:05:25;94626.66;;;-5.50;100.00
39739;BME280;25422;48.286;8.484;2024-01-10T09:07:50;94624.13;;;-5.09;100.00
39739;BME280;25422;48.286;8.484;2024-01-10T09:10:16;94626.34;;;-5.21;100.00
39739;BME280;25422;48.286;8.484;2024-01-10T09:12:41;94632.41;;;-5.45;100.00
39739;BME280;25422;48.286;8.484;2024-01-10T09:15:12;94637.13;;;-5.15;100.00
39739;BME280;25422;48.286;8.484;2024-01-10T09:17:39;94637.84;;;-5.11;100.00
39739;BME280;25422;48.286;8.484;2024-01-10T09:20:06;94644.16;;;-4.79;100.00
39739;BME280;25422;48.286;8.484;2024-01-10T09:22:31;94641.88;;;-4.66;100.00
39739;BME280;25422;48.286;8.484;2024-01-10T09:24:59;94644.09;;;-4.77;100.00
39739;BME280;25422;48.286;8.484;2024-01-10T09:27:30;94644.28;;;-5.02;100.00
39739;BME280;25422;48.286;8.484;2024-01-10T09:29:55;94649.56;;;-4.86;100.00
39739;BME280;25422;48.286;8.484;2024-01-10T09:32:21;94651.19;;;-5.04;100.00
39739;BME280;25422;48.286;8.484;2024-01-10T09:34:47;94652.75;;;-5.02;100.00
39739;BME280;25422;48.286;8.484;2024-01-10T09:37:13;94652.75;;;-5.02;100.00
39739;BME280;25422;48.286;8.484;2024-01-10T09:39:38;94660.53;;;-5.05;100.00
39739;BME280;25422;48.286;8.484;2024-01-10T09:42:04;94657.38;;;-4.89;100.00
39739;BME280;25422;48.286;8.484;2024-01-10T09:44:29;94655.44;;;-4.45;100.00
39739;BME280;25422;48.286;8.484;2024-01-10T09:46:55;94655.06;;;-4.56;100.00
39739;BME280;25422;48.286;8.484;2024-01-10T09:49:21;94655.00;;;-4.54;100.00
39739;BME280;25422;48.286;8.484;2024-01-10T09:51:48;94664.97;;;-4.48;100.00
39739;BME280;25422;48.286;8.484;2024-01-10T09:54:15;94657.22;;;-4.47;100.00
39739;BME280;25422;48.286;8.484;2024-01-10T09:56:41;94650.63;;;-4.13;100.00
39739;BME280;25422;48.286;8.484;2024-01-10T09:59:07;94648.38;;;-4.40;100.00
39739;BME280;25422;48.286;8.484;2024-01-10T10:01:38;94653.31;;;-4.16;100.00
39739;BME280;25422;48.286;8.484;2024-01-10T10:04:07;94655.78;;;-4.52;100.00
39739;BME280;25422;48.286;8.484;2024-01-10T10:06:34;94656.34;;;-4.85;100.00
39739;BME280;25422;48.286;8.484;2024-01-10T10:09:00;94660.66;;;-4.67;100.00
39739;BME280;25422;48.286;8.484;2024-01-10T10:11:26;94662.19;;;-4.44;100.00
39739;BME280;25422;48.286;8.484;2024-01-10T10:13:51;94661.69;;;-4.31;100.00
39739;BME280;25422;48.286;8.484;2024-01-10T10:16:23;94666.34;;;-4.41;100.00
39739;BME280;25422;48.286;8.484;2024-01-10T10:18:50;94666.84;;;-4.33;100.00
39739;BME280;25422;48.286;8.484;2024-01-10T10:21:18;94666.56;;;-4.46;100.00
39739;BME280;25422;48.286;8.484;2024-01-10T10:23:57;94668.91;;;-4.41;100.00
39739;BME280;25422;48.286;8.484;2024-01-10T10:26:23;94662.16;;;-4.23;100.00
39739;BME280;25422;48.286;8.484;2024-01-10T10:28:50;94659.25;;;-3.96;100.00
39739;BME280;25422;48.286;8.484;2024-01-10T10:31:17;94660.41;;;-3.84;100.00
39739;BME280;25422;48.286;8.484;2024-01-10T10:33:43;94661.63;;;-4.11;100.00
39739;BME280;25422;48.286;8.484;2024-01-10T10:36:09;94664.56;;;-3.82;100.00
39739;BME280;25422;48.286;8.484;2024-01-10T10:38:35;94670.09;;;-3.91;100.00
39739;BME280;25422;48.286;8.484;2024-01-10T10:41:06;94672.16;;;-3.99;100.00
39739;BME280;25422;48.286;8.484;2024-01-10T10:43:36;94667.88;;;-3.99;100.00
39739;BME280;25422;48.286;8.484;2024-01-10T10:46:04;94666.00;;;-3.76;100.00
39739;BME280;25422;48.286;8.484;2024-01-10T10:48:34;94668.22;;;-3.14;100.00
39739;BME280;25422;48.286;8.484;2024-01-10T10:51:11;94665.56;;;-2.44;100.00
39739;BME280;25422;48.286;8.484;2024-01-10T10:53:42;94663.19;;;-1.98;100.00
39739;BME280;25422;48.286;8.484;2024-01-10T10:56:11;94662.97;;;-1.47;100.00
39739;BME280;25422;48.286;8.484;2024-01-10T10:58:42;94661.56;;;-1.06;100.00
39739;BME280;25422;48.286;8.484;2024-01-10T11:01:11;94660.69;;;-1.83;100.00
39739;BME280;25422;48.286;8.484;2024-01-10T11:03:38;94651.88;;;-1.01;100.00
39739;BME280;25422;48.286;8.484;2024-01-10T11:06:09;94662.97;;;-0.70;100.00
39739;BME280;25422;48.286;8.484;2024-01-10T11:08:38;94661.38;;;-0.73;100.00
39739;BME280;25422;48.286;8.484;2024-01-10T11:11:11;94663.59;;;-0.66;100.00
39739;BME280;25422;48.286;8.484;2024-01-10T11:14:01;94661.78;;;-0.36;100.00
39739;BME280;25422;48.286;8.484;2024-01-10T11:19:37;94664.38;;;-0.07;100.00
39739;BME280;25422;48.286;8.484;2024-01-10T11:22:21;94668.22;;;-0.43;100.00
39739;BME280;25422;48.286;8.484;2024-01-10T11:24:53;94664.22;;;0.24;100.00
39739;BME280;25422;48.286;8.484;2024-01-10T11:27:19;94662.34;;;-0.16;100.00
39739;BME280;25422;48.286;8.484;2024-01-10T11:29:45;94665.09;;;-0.48;100.00
39739;BME280;25422;48.286;8.484;2024-01-10T11:32:18;94664.72;;;-0.13;100.00
39739;BME280;25422;48.286;8.484;2024-01-10T11:37:19;94658.75;;;0.43;100.00
39739;BME280;25422;48.286;8.484;2024-01-10T11:39:45;94664.59;;;0.17;100.00
39739;BME280;25422;48.286;8.484;2024-01-10T11:42:11;94658.78;;;-0.13;100.00
39739;BME280;25422;48.286;8.484;2024-01-10T11:44:47;94656.75;;;0.88;100.00
39739;BME280;25422;48.286;8.484;2024-01-10T11:47:15;94652.78;;;0.70;100.00
39739;BME280;25422;48.286;8.484;2024-01-10T11:49:41;94642.44;;;0.29;100.00
39739;BME280;25422;48.286;8.484;2024-01-10T11:52:21;94653.50;;;0.72;100.00
39739;BME280;25422;48.286;8.484;2024-01-10T11:54:47;94642.28;;;0.04;100.00
39739;BME280;25422;48.286;8.484;2024-01-10T11:57:22;94650.56;;;-0.06;100.00
39739;BME280;25422;48.286;8.484;2024-01-10T11:59:52;94650.66;;;0.07;100.00
39739;BME280;25422;48.286;8.484;2024-01-10T12:02:18;94642.50;;;-0.14;100.00
39739;BME280;25422;48.286;8.484;2024-01-10T12:04:44;94639.81;;;0.16;100.00
39739;BME280;25422;48.286;8.484;2024-01-10T12:07:12;94646.78;;;0.56;100.00
39739;BME280;25422;48.286;8.484;2024-01-10T12:09:38;94644.00;;;0.17;100.00
39739;BME280;25422;48.286;8.484;2024-01-10T12:12:04;94647.09;;;-0.48;100.00
39739;BME280;25422;48.286;8.484;2024-01-10T12:14:31;94648.28;;;-0.54;100.00
39739;BME280;25422;48.286;8.484;2024-01-10T12:16:57;94642.28;;;-0.83;100.00
39739;BME280;25422;48.286;8.484;2024-01-10T12:19:23;94637.09;;;-1.12;100.00
39739;BME280;25422;48.286;8.484;2024-01-10T12:21:49;94642.03;;;-1.09;100.00
39739;BME280;25422;48.286;8.484;2024-01-10T12:24:14;94641.94;;;-1.07;100.00
39739;BME280;25422;48.286;8.484;2024-01-10T12:26:46;94633.84;;;-0.85;100.00
39739;BME280;25422;48.286;8.484;2024-01-10T12:29:12;94638.03;;;-0.98;100.00
39739;BME280;25422;48.286;8.484;2024-01-10T12:31:39;94631.03;;;-0.52;100.00
39739;BME280;25422;48.286;8.484;2024-01-10T12:34:07;94629.91;;;0.38;100.00
39739;BME280;25422;48.286;8.484;2024-01-10T12:36:33;94636.13;;;1.15;100.00
39739;BME280;25422;48.286;8.484;2024-01-10T12:38:59;94635.59;;;1.49;100.00
39739;BME280;25422;48.286;8.484;2024-01-10T12:41:26;94631.75;;;1.93;100.00
39739;BME280;25422;48.286;8.484;2024-01-10T12:43:54;94626.97;;;3.10;100.00
39739;BME280;25422;48.286;8.484;2024-01-10T12:46:21;94629.69;;;3.78;100.00
39739;BME280;25422;48.286;8.484;2024-01-10T12:49:06;94630.78;;;4.64;100.00
39739;BME280;25422;48.286;8.484;2024-01-10T12:51:33;94624.28;;;5.02;100.00